Time;durP1;ratioP1;P1;durP2;ratioP2;P2;SDS_P1;SDS_P2;PMS_P1;PMS_P2;Temp;Humidity;BMP_temperature;BMP_pressure;BME280_temperature;BME280_humidity;BME280_pressure;Samples;Min_cycle;Max_cycle;Signal;HPM_P1;HPM_P2
2022/05/11 00:04:38;;;;;;;;;;;;;;;;;;;;;
2022/05/11 00:11:04;;;;;;;;;;;;;;;;;;2512068;23;19905;-86
2022/05/11 00:14:42;;;;;;;;;;;;;;;;;;2484084;23;19907;-85
2022/05/11 00:19:01;;;;;;;;;;;;;;;;;;;;;
2022/05/11 00:20:25;;;;;;;;;;;;;;;;;;2539200;23;19905;-87
2022/05/11 00:21:28;;;;;;;;;;;;;;;;;;2532597;23;19935;-87
2022/05/11 00:22:28;;;;;;;;;;;;;;;;;;2546837;23;19904;-87
2022/05/11 00:25:19;;;;;;;;;;;;;;;;;;2512417;23;19933;-86
2022/05/11 00:26:33;;;;;;;;;;;;;;;;;;;;;
2022/05/11 00:28:04;;;;;;;;;;;;;;;;;;;;;
2022/05/11 00:29:19;;;;;;;;;;;;;;;;;;2585297;23;19904;-84
2022/05/11 00:33:59;;;;;;;;;;;;;;;;;;;;;
2022/05/11 00:35:21;;;;;;;;;;;;;;;;;;;;;
2022/05/11 00:36:40;;;;;;;;;;;;;;;;;;;;;
2022/05/11 00:39:39;;;;;;;;;;;;;;;;;;;;;
2022/05/11 00:55:51;;;;;;;;;;;;;;;;;;2588942;22;19938;-90
2022/05/11 00:56:52;;;;;;;;;;;;;;;;;;2594189;23;19907;-89
2022/05/11 00:57:56;;;;;;;;;;;;;;;;;;2591246;23;20264;-89
2022/05/11 00:58:58;;;;;;;;;;;;;;;;;;2584977;23;19904;-89
2022/05/11 00:59:58;;;;;;;;;;;;;;;;;;2591371;23;19903;-89
2022/05/11 01:00:59;;;;;;;;;;;;;;;;;;2574862;23;19928;-89
2022/05/11 01:02:03;;;;;;;;;;;;;;;;;;2574130;23;19904;-88
2022/05/11 01:03:09;;;;;;;;;;;;;;;;;;2559970;23;19914;-87
2022/05/11 01:04:11;;;;;;;;;;;;;;;;;;2571139;23;19942;-89
2022/05/11 01:05:11;;;;;;;;;;;;;;;;;;2572097;23;20312;-89
2022/05/11 01:06:12;;;;;;;;;;;;;;;;;;2575684;23;19903;-89
2022/05/11 01:07:13;;;;;;;;;;;;;;;;;;2584840;23;19956;-88
2022/05/11 01:08:15;;;;;;;;;;;;;;;;;;2572118;23;19915;-89
2022/05/11 01:09:15;;;;;;;;;;;;;;;;;;2576343;23;20257;-91
2022/05/11 01:10:16;;;;;;;;;;;;;;;;;;2572617;23;19932;-90
2022/05/11 01:11:16;;;;;;;;;;;;;;;;;;2560966;23;19904;-90
2022/05/11 01:12:19;;;;;;;;;;;;;;;;;;2567779;23;19904;-89
2022/05/11 01:13:19;;;;;;;;;;;;;;;;;;2565808;23;19904;-91
2022/05/11 01:14:21;;;;;;;;;;;;;;;;;;2560153;23;19959;-89
2022/05/11 01:15:22;;;;;;;;;;;;;;;;;;2561526;23;19904;-90
2022/05/11 01:16:23;;;;;;;;;;;;;;;;;;2576970;23;19908;-90
2022/05/11 01:17:24;;;;;;;;;;;;;;;;;;2573787;23;19907;-90
2022/05/11 01:18:25;;;;;;;;;;;;;;;;;;2573504;23;19903;-90
2022/05/11 01:19:27;;;;;;;;;;;;;;;;;;2588125;23;19927;-91
2022/05/11 01:20:29;;;;;;;;;;;;;;;;;;2560963;23;19939;-91
2022/05/11 01:21:35;;;;;;;;;;;;;;;;;;2577488;23;19908;-89
2022/05/11 01:22:38;;;;;;;;;;;;;;;;;;2590461;23;19903;-91
2022/05/11 01:23:48;;;;;;;;;;;;;;;;;;2585225;23;20269;-91
2022/05/11 01:24:50;;;;;;;;;;;;;;;;;;2583275;23;20382;-91
2022/05/11 01:25:50;;;;;;;;;;;;;;;;;;2576498;23;19966;-91
2022/05/11 01:26:50;;;;;;;;;;;;;;;;;;2571606;23;19904;-90
2022/05/11 01:27:59;;;;;;;;;;;;;;;;;;2571696;23;19911;-91
2022/05/11 01:29:01;;;;;;;;;;;;;;;;;;2570694;23;19974;-91
2022/05/11 01:30:12;;;;;;;;;;;;;;;;;;2572546;23;19910;-91
2022/05/11 01:31:13;;;;;;;;;;;;;;;;;;2573826;23;19904;-91
2022/05/11 01:32:14;;;;;;;;;;;;;;;;;;2572852;23;19908;-92
2022/05/11 01:33:17;;;;;;;;;;;;;;;;;;2573577;23;19986;-92
2022/05/11 01:34:20;;;;;;;;;;;;;;;;;;2561651;23;19904;-92
2022/05/11 01:35:39;;;;;;;;;;;;;;;;;;2578304;23;20360;-91
2022/05/11 01:36:40;;;;;;;;;;;;;;;;;;2584912;23;20328;-92
2022/05/11 01:37:43;;;;;;;;;;;;;;;;;;2586429;23;19904;-92
2022/05/11 01:38:45;;;;;;;;;;;;;;;;;;2572888;23;19998;-92
2022/05/11 01:39:46;;;;;;;;;;;;;;;;;;2576534;23;19931;-91
2022/05/11 01:40:46;;;;;;;;;;;;;;;;;;2573543;23;19965;-92
2022/05/11 01:41:51;;;;;;;;;;;;;;;;;;2573209;23;19904;-92
2022/05/11 01:42:51;;;;;;;;;;;;;;;;;;2573976;23;19903;-90
2022/05/11 01:43:52;;;;;;;;;;;;;;;;;;2565346;23;19939;-92
2022/05/11 01:44:52;;;;;;;;;;;;;;;;;;2572912;23;19907;-92
2022/05/11 01:45:53;;;;;;;;;;;;;;;;;;2572902;23;19949;-92
2022/05/11 01:46:54;;;;;;;;;;;;;;;;;;2577142;23;19926;-92
2022/05/11 01:47:56;;;;;;;;;;;;;;;;;;2571812;23;19911;-92
2022/05/11 01:48:56;;;;;;;;;;;;;;;;;;2576614;23;20296;-91
2022/05/11 01:49:57;;;;;;;;;;;;;;;;;;2571958;23;19904;-92
2022/05/11 01:50:58;;;;;;;;;;;;;;;;;;2561181;23;20000;-92
2022/05/11 01:51:58;;;;;;;;;;;;;;;;;;2560231;23;19905;-92
2022/05/11 01:52:59;;;;;;;;;;;;;;;;;;2559980;23;19904;-92
2022/05/11 01:53:59;;;;;;;;;;;;;;;;;;2561038;23;19912;-92
2022/05/11 01:55:00;;;;;;;;;;;;;;;;;;2576696;23;20260;-93
2022/05/11 01:56:00;;;;;;;;;;;;;;;;;;2575416;23;20321;-92
2022/05/11 01:57:00;;;;;;;;;;;;;;;;;;2575683;23;19904;-92
2022/05/11 01:58:02;;;;;;;;;;;;;;;;;;2561389;23;20344;-93
2022/05/11 01:59:02;;;;;;;;;;;;;;;;;;2573570;23;19903;-93
2022/05/11 02:00:03;;;;;;;;;;;;;;;;;;2584731;23;19936;-93
2022/05/11 02:01:04;;;;;;;;;;;;;;;;;;2562319;23;19900;-92
2022/05/11 02:02:04;;;;;;;;;;;;;;;;;;2561049;23;19995;-93
2022/05/11 02:03:05;;;;;;;;;;;;;;;;;;2573672;23;19905;-92
2022/05/11 02:07:49;;;;;;;;;;;;;;;;;;2574493;23;19903;-91
2022/05/11 02:08:04;;;;;;;;;;;;;;;;;;2578133;23;19912;-93
2022/05/11 02:09:06;;;;;;;;;;;;;;;;;;2573537;23;20257;-93
2022/05/11 02:10:06;;;;;;;;;;;;;;;;;;2574510;23;19904;-92
2022/05/11 02:11:07;;;;;;;;;;;;;;;;;;2586588;23;19943;-92
2022/05/11 02:12:11;;;;;;;;;;;;;;;;;;2563007;23;19904;-92
2022/05/11 02:13:11;;;;;;;;;;;;;;;;;;2574153;23;19904;-92
2022/05/11 02:14:12;;;;;;;;;;;;;;;;;;2584883;23;19961;-92
2022/05/11 02:15:14;;;;;;;;;;;;;;;;;;2561400;23;19911;-92
2022/05/11 02:16:15;;;;;;;;;;;;;;;;;;2573940;23;19973;-92
2022/05/11 02:17:15;;;;;;;;;;;;;;;;;;2585703;23;19907;-91
2022/05/11 02:18:16;;;;;;;;;;;;;;;;;;2561112;23;19961;-92
2022/05/11 02:19:16;;;;;;;;;;;;;;;;;;2573415;23;20364;-92
2022/05/11 02:20:18;;;;;;;;;;;;;;;;;;2588697;23;19903;-91
2022/05/11 02:21:18;;;;;;;;;;;;;;;;;;2585537;23;19910;-92
2022/05/11 02:22:18;;;;;;;;;;;;;;;;;;2590647;23;20366;-92
2022/05/11 02:23:19;;;;;;;;;;;;;;;;;;2574477;23;19982;-93
2022/05/11 02:24:20;;;;;;;;;;;;;;;;;;2576145;23;19910;-92
2022/05/11 02:25:21;;;;;;;;;;;;;;;;;;2562435;23;20269;-93
2022/05/11 02:26:21;;;;;;;;;;;;;;;;;;2561754;23;20334;-91
2022/05/11 02:27:21;;;;;;;;;;;;;;;;;;2573677;23;19904;-93
2022/05/11 02:28:22;;;;;;;;;;;;;;;;;;2573317;23;19915;-93
2022/05/11 02:29:23;;;;;;;;;;;;;;;;;;2572943;23;19944;-92
2022/05/11 02:30:25;;;;;;;;;;;;;;;;;;2574816;23;19904;-93
2022/05/11 02:31:25;;;;;;;;;;;;;;;;;;2574837;23;20383;-92
2022/05/11 02:32:26;;;;;;;;;;;;;;;;;;2573996;23;19927;-92
2022/05/11 02:33:26;;;;;;;;;;;;;;;;;;2586174;23;19903;-93
2022/05/11 02:35:46;;;;;;;;;;;;;;;;;;2587033;23;19908;-92
2022/05/11 02:36:46;;;;;;;;;;;;;;;;;;2575036;23;19908;-92
2022/05/11 02:37:51;;;;;;;;;;;;;;;;;;2574578;23;19903;-92
2022/05/11 02:38:52;;;;;;;;;;;;;;;;;;2577064;23;19903;-93
2022/05/11 02:39:53;;;;;;;;;;;;;;;;;;2572913;23;20308;-92
2022/05/11 02:40:54;;;;;;;;;;;;;;;;;;2589360;23;19908;-92
2022/05/11 02:41:55;;;;;;;;;;;;;;;;;;2573402;23;19915;-92
2022/05/11 02:42:56;;;;;;;;;;;;;;;;;;2571630;23;19903;-93
2022/05/11 02:43:56;;;;;;;;;;;;;;;;;;2571400;23;19981;-93
2022/05/11 02:44:56;;;;;;;;;;;;;;;;;;2572550;23;20337;-92
2022/05/11 02:45:57;;;;;;;;;;;;;;;;;;2572451;23;20022;-92
2022/05/11 02:46:57;;;;;;;;;;;;;;;;;;2560506;23;19909;-92
2022/05/11 02:47:58;;;;;;;;;;;;;;;;;;2570946;23;19903;-92
2022/05/11 02:48:58;;;;;;;;;;;;;;;;;;2582949;23;19903;-92
2022/05/11 02:49:58;;;;;;;;;;;;;;;;;;2584737;23;19995;-93
2022/05/11 02:50:59;;;;;;;;;;;;;;;;;;2557644;23;19904;-91
2022/05/11 02:51:59;;;;;;;;;;;;;;;;;;2558536;23;20238;-91
2022/05/11 02:53:02;;;;;;;;;;;;;;;;;;2570924;23;20325;-90
2022/05/11 02:54:03;;;;;;;;;;;;;;;;;;2589297;23;19945;-90
2022/05/11 02:55:03;;;;;;;;;;;;;;;;;;2578915;23;19904;-91
2022/05/11 02:56:04;;;;;;;;;;;;;;;;;;2583475;23;19904;-90
2022/05/11 02:57:04;;;;;;;;;;;;;;;;;;2580353;23;19955;-90
2022/05/11 02:58:05;;;;;;;;;;;;;;;;;;2584852;23;19904;-91
2022/05/11 02:59:05;;;;;;;;;;;;;;;;;;2593635;23;19914;-91
2022/05/11 03:00:07;;;;;;;;;;;;;;;;;;2594323;22;19896;-89
2022/05/11 03:01:07;;;;;;;;;;;;;;;;;;2593546;23;19903;-91
2022/05/11 03:02:08;;;;;;;;;;;;;;;;;;2593248;23;19926;-92
2022/05/11 03:03:08;;;;;;;;;;;;;;;;;;2568479;23;19892;-92
2022/05/11 03:04:08;;;;;;;;;;;;;;;;;;2578963;23;19908;-92
2022/05/11 03:05:11;;;;;;;;;;;;;;;;;;2575056;23;19903;-91
2022/05/11 03:06:11;;;;;;;;;;;;;;;;;;2574228;23;20311;-91
2022/05/11 03:07:12;;;;;;;;;;;;;;;;;;2578657;23;19962;-92
2022/05/11 03:08:12;;;;;;;;;;;;;;;;;;2574130;23;19935;-93
2022/05/11 03:09:16;;;;;;;;;;;;;;;;;;2575781;23;19903;-92
2022/05/11 03:10:16;;;;;;;;;;;;;;;;;;2571650;23;20249;-92
2022/05/11 03:11:17;;;;;;;;;;;;;;;;;;2570274;23;19955;-92
2022/05/11 03:12:17;;;;;;;;;;;;;;;;;;2570617;23;19904;-92
2022/05/11 03:13:18;;;;;;;;;;;;;;;;;;2572143;23;20328;-92
2022/05/11 03:14:18;;;;;;;;;;;;;;;;;;2557411;23;19951;-90
2022/05/11 03:15:18;;;;;;;;;;;;;;;;;;2575804;23;19899;-91
2022/05/11 03:16:18;;;;;;;;;;;;;;;;;;2569645;23;20344;-91
2022/05/11 03:17:19;;;;;;;;;;;;;;;;;;2569884;23;19904;-91
2022/05/11 03:18:20;;;;;;;;;;;;;;;;;;2559611;23;19971;-90
2022/05/11 03:19:20;;;;;;;;;;;;;;;;;;2570275;23;19931;-90
2022/05/11 03:20:23;;;;;;;;;;;;;;;;;;2581324;23;20141;-91
2022/05/11 03:21:23;;;;;;;;;;;;;;;;;;2590307;23;19903;-91
2022/05/11 03:22:24;;;;;;;;;;;;;;;;;;2598514;23;19935;-90
2022/05/11 03:23:25;;;;;;;;;;;;;;;;;;2585744;23;19908;-91
2022/05/11 03:24:27;;;;;;;;;;;;;;;;;;2581599;23;19931;-91
2022/05/11 03:25:30;;;;;;;;;;;;;;;;;;2583249;22;19895;-92
2022/05/11 03:26:31;;;;;;;;;;;;;;;;;;2576318;23;20210;-92
2022/05/11 03:27:31;;;;;;;;;;;;;;;;;;2579627;23;20368;-90
2022/05/11 03:28:32;;;;;;;;;;;;;;;;;;2589111;23;19946;-91
2022/05/11 03:29:33;;;;;;;;;;;;;;;;;;2586887;23;19967;-91
2022/05/11 03:30:33;;;;;;;;;;;;;;;;;;2584331;23;19911;-91
2022/05/11 03:31:34;;;;;;;;;;;;;;;;;;2586616;23;20387;-91
2022/05/11 03:35:13;;;;;;;;;;;;;;;;;;2575057;23;19931;-91
2022/05/11 03:36:13;;;;;;;;;;;;;;;;;;2571511;23;20300;-92
2022/05/11 03:37:16;;;;;;;;;;;;;;;;;;2574602;23;19908;-91
2022/05/11 03:38:16;;;;;;;;;;;;;;;;;;2572182;23;19895;-92
2022/05/11 03:39:17;;;;;;;;;;;;;;;;;;2558590;23;19911;-92
2022/05/11 03:40:18;;;;;;;;;;;;;;;;;;2558293;23;19912;-92
2022/05/11 03:41:18;;;;;;;;;;;;;;;;;;2558514;23;20273;-91
2022/05/11 03:42:19;;;;;;;;;;;;;;;;;;2559066;23;19908;-91
2022/05/11 03:43:19;;;;;;;;;;;;;;;;;;2559789;23;20393;-91
2022/05/11 03:44:20;;;;;;;;;;;;;;;;;;2558383;23;19935;-91
2022/05/11 03:45:24;;;;;;;;;;;;;;;;;;2570257;23;19931;-90
2022/05/11 03:46:24;;;;;;;;;;;;;;;;;;2571233;23;19907;-91
2022/05/11 03:47:25;;;;;;;;;;;;;;;;;;2570527;23;19904;-91
2022/05/11 03:48:25;;;;;;;;;;;;;;;;;;2559043;23;19976;-92
2022/05/11 03:49:27;;;;;;;;;;;;;;;;;;2571114;23;19904;-91
2022/05/11 03:50:28;;;;;;;;;;;;;;;;;;2574673;23;19911;-91
2022/05/11 03:51:29;;;;;;;;;;;;;;;;;;2581092;23;19911;-91
2022/05/11 03:52:30;;;;;;;;;;;;;;;;;;2577308;23;19907;-91
2022/05/11 03:53:30;;;;;;;;;;;;;;;;;;2579916;23;19908;-90
2022/05/11 03:54:31;;;;;;;;;;;;;;;;;;2572518;23;19911;-91
2022/05/11 03:55:31;;;;;;;;;;;;;;;;;;2570251;23;19948;-90
2022/05/11 03:56:32;;;;;;;;;;;;;;;;;;2575561;23;19908;-90
2022/05/11 03:57:35;;;;;;;;;;;;;;;;;;2574915;23;19903;-90
2022/05/11 03:58:35;;;;;;;;;;;;;;;;;;2559055;23;19911;-90
2022/05/11 03:59:36;;;;;;;;;;;;;;;;;;2557617;23;20372;-90
2022/05/11 04:00:36;;;;;;;;;;;;;;;;;;2570610;23;19910;-91
2022/05/11 04:01:36;;;;;;;;;;;;;;;;;;2570693;23;20312;-90
2022/05/11 04:02:36;;;;;;;;;;;;;;;;;;2574299;23;19982;-90
2022/05/11 04:03:37;;;;;;;;;;;;;;;;;;2575526;23;19991;-89
2022/05/11 04:04:37;;;;;;;;;;;;;;;;;;2557401;23;19962;-91
2022/05/11 04:05:38;;;;;;;;;;;;;;;;;;2545400;23;19943;-90
2022/05/11 04:06:38;;;;;;;;;;;;;;;;;;2546100;23;20258;-91
2022/05/11 04:07:39;;;;;;;;;;;;;;;;;;2557554;23;19991;-91
2022/05/11 04:08:39;;;;;;;;;;;;;;;;;;2575044;23;19904;-91
2022/05/11 04:09:39;;;;;;;;;;;;;;;;;;2558194;23;19904;-91
2022/05/11 04:10:40;;;;;;;;;;;;;;;;;;2557814;23;19911;-91
2022/05/11 04:11:40;;;;;;;;;;;;;;;;;;2571467;23;19908;-91
2022/05/11 04:12:41;;;;;;;;;;;;;;;;;;2561974;23;19942;-90
2022/05/11 04:13:41;;;;;;;;;;;;;;;;;;2558029;23;19910;-91
2022/05/11 04:14:42;;;;;;;;;;;;;;;;;;2559149;23;19911;-91
2022/05/11 04:15:42;;;;;;;;;;;;;;;;;;2557920;23;19952;-91
2022/05/11 04:16:43;;;;;;;;;;;;;;;;;;2563221;23;19896;-91
2022/05/11 04:17:44;;;;;;;;;;;;;;;;;;2571030;23;19903;-91
2022/05/11 04:18:45;;;;;;;;;;;;;;;;;;2570047;23;19907;-91
2022/05/11 04:19:45;;;;;;;;;;;;;;;;;;2571537;23;19912;-92
2022/05/11 04:20:46;;;;;;;;;;;;;;;;;;2570194;23;19903;-91
2022/05/11 04:21:46;;;;;;;;;;;;;;;;;;2560272;23;19904;-91
2022/05/11 04:22:47;;;;;;;;;;;;;;;;;;2560318;23;20238;-91
2022/05/11 04:23:47;;;;;;;;;;;;;;;;;;2557703;23;20253;-90
2022/05/11 04:24:48;;;;;;;;;;;;;;;;;;2558904;23;19966;-91
2022/05/11 04:25:48;;;;;;;;;;;;;;;;;;2569581;23;19935;-90
2022/05/11 04:26:51;;;;;;;;;;;;;;;;;;2559185;23;19963;-91
2022/05/11 04:27:51;;;;;;;;;;;;;;;;;;2558136;23;19919;-91
2022/05/11 04:28:52;;;;;;;;;;;;;;;;;;2545349;23;20334;-91
2022/05/11 04:29:52;;;;;;;;;;;;;;;;;;2559264;23;19936;-90
2022/05/11 04:31:02;;;;;;;;;;;;;;;;;;2557452;23;19975;-90
2022/05/11 04:32:03;;;;;;;;;;;;;;;;;;2565390;23;19888;-91
2022/05/11 04:33:03;;;;;;;;;;;;;;;;;;2557874;23;19904;-91
2022/05/11 04:34:03;;;;;;;;;;;;;;;;;;2561803;23;20329;-91
2022/05/11 04:35:04;;;;;;;;;;;;;;;;;;2576047;23;19939;-91
2022/05/11 04:36:05;;;;;;;;;;;;;;;;;;2580953;23;19957;-91
2022/05/11 04:37:05;;;;;;;;;;;;;;;;;;2567200;23;19896;-91
2022/05/11 04:38:07;;;;;;;;;;;;;;;;;;2570048;23;19900;-91
2022/05/11 04:39:07;;;;;;;;;;;;;;;;;;2563320;23;19912;-91
2022/05/11 04:40:10;;;;;;;;;;;;;;;;;;2547389;23;19942;-90
2022/05/11 04:41:11;;;;;;;;;;;;;;;;;;2562364;23;19907;-91
2022/05/11 04:42:11;;;;;;;;;;;;;;;;;;2578099;23;19920;-92
2022/05/11 04:43:12;;;;;;;;;;;;;;;;;;2571673;23;19979;-91
2022/05/11 04:44:12;;;;;;;;;;;;;;;;;;2576406;23;20253;-90
2022/05/11 04:45:13;;;;;;;;;;;;;;;;;;2562211;23;19904;-91
2022/05/11 04:46:13;;;;;;;;;;;;;;;;;;2549653;23;19904;-89
2022/05/11 04:47:14;;;;;;;;;;;;;;;;;;2570423;23;19915;-89
2022/05/11 04:48:16;;;;;;;;;;;;;;;;;;2560272;23;20374;-91
2022/05/11 04:49:17;;;;;;;;;;;;;;;;;;2564298;23;19915;-90
2022/05/11 04:50:17;;;;;;;;;;;;;;;;;;2576692;23;20351;-91
2022/05/11 04:51:17;;;;;;;;;;;;;;;;;;2575207;23;19911;-91
2022/05/11 04:52:18;;;;;;;;;;;;;;;;;;2560187;23;19904;-91
2022/05/11 04:53:19;;;;;;;;;;;;;;;;;;2561058;23;19904;-91
2022/05/11 04:54:20;;;;;;;;;;;;;;;;;;2582103;23;19903;-91
2022/05/11 04:55:20;;;;;;;;;;;;;;;;;;2589945;23;19983;-91
2022/05/11 04:56:20;;;;;;;;;;;;;;;;;;2581412;23;19908;-90
2022/05/11 04:57:21;;;;;;;;;;;;;;;;;;2563436;23;19905;-90
2022/05/11 04:58:22;;;;;;;;;;;;;;;;;;2569614;23;20303;-90
2022/05/11 04:59:22;;;;;;;;;;;;;;;;;;2573956;23;19926;-91
2022/05/11 05:00:24;;;;;;;;;;;;;;;;;;2571570;23;20317;-90
2022/05/11 05:01:25;;;;;;;;;;;;;;;;;;2569902;23;19908;-91
2022/05/11 05:02:31;;;;;;;;;;;;;;;;;;2587397;23;19990;-91
2022/05/11 05:03:34;;;;;;;;;;;;;;;;;;2568714;23;20253;-91
2022/05/11 05:04:36;;;;;;;;;;;;;;;;;;2568826;23;19908;-91
2022/05/11 05:05:37;;;;;;;;;;;;;;;;;;2570083;23;19987;-91
2022/05/11 05:06:38;;;;;;;;;;;;;;;;;;2555557;23;20220;-91
2022/05/11 05:07:42;;;;;;;;;;;;;;;;;;2574114;23;19911;-92
2022/05/11 05:08:43;;;;;;;;;;;;;;;;;;2581027;23;19942;-91
2022/05/11 05:09:43;;;;;;;;;;;;;;;;;;2581569;23;19938;-92
2022/05/11 05:10:47;;;;;;;;;;;;;;;;;;2569815;23;19908;-92
2022/05/11 05:11:47;;;;;;;;;;;;;;;;;;2569223;23;19910;-91
2022/05/11 05:12:48;;;;;;;;;;;;;;;;;;2570512;23;20407;-92
2022/05/11 05:13:48;;;;;;;;;;;;;;;;;;2586548;23;19989;-91
2022/05/11 05:14:48;;;;;;;;;;;;;;;;;;2570585;23;19903;-91
2022/05/11 05:15:54;;;;;;;;;;;;;;;;;;2577570;23;19930;-89
2022/05/11 05:16:59;;;;;;;;;;;;;;;;;;2585247;23;19907;-92
2022/05/11 05:18:01;;;;;;;;;;;;;;;;;;2572923;23;19983;-92
2022/05/11 05:19:02;;;;;;;;;;;;;;;;;;2569698;23;19904;-93
2022/05/11 05:20:03;;;;;;;;;;;;;;;;;;2587253;23;20310;-94
2022/05/11 05:21:03;;;;;;;;;;;;;;;;;;2572161;23;19904;-94
2022/05/11 05:22:04;;;;;;;;;;;;;;;;;;2570597;23;19939;-92
2022/05/11 05:23:04;;;;;;;;;;;;;;;;;;2584217;22;19994;-92
2022/05/11 05:24:05;;;;;;;;;;;;;;;;;;2584665;23;19984;-91
2022/05/11 05:25:05;;;;;;;;;;;;;;;;;;2576757;23;19911;-93
2022/05/11 05:26:06;;;;;;;;;;;;;;;;;;2589584;23;19912;-93
2022/05/11 05:27:06;;;;;;;;;;;;;;;;;;2570798;23;20277;-93
2022/05/11 05:31:05;;;;;;;;;;;;;;;;;;2588592;23;19903;-92
2022/05/11 05:32:06;;;;;;;;;;;;;;;;;;2571188;23;19954;-92
2022/05/11 05:33:06;;;;;;;;;;;;;;;;;;2559583;23;19904;-91
2022/05/11 05:34:07;;;;;;;;;;;;;;;;;;2575172;23;20305;-92
2022/05/11 05:35:08;;;;;;;;;;;;;;;;;;2570899;23;19942;-91
2022/05/11 05:36:09;;;;;;;;;;;;;;;;;;2576205;23;20249;-91
2022/05/11 05:37:11;;;;;;;;;;;;;;;;;;2571035;23;20470;-91
2022/05/11 05:38:11;;;;;;;;;;;;;;;;;;2560937;23;19911;-91
2022/05/11 05:39:11;;;;;;;;;;;;;;;;;;2586489;23;19900;-93
2022/05/11 05:40:12;;;;;;;;;;;;;;;;;;2599131;22;19899;-91
2022/05/11 05:41:12;;;;;;;;;;;;;;;;;;2578848;23;19935;-92
2022/05/11 05:42:20;;;;;;;;;;;;;;;;;;2582586;23;19908;-92
2022/05/11 05:46:37;;;;;;;;;;;;;;;;;;2566509;23;19904;-93
2022/05/11 06:03:04;;;;;;;;;;;;;;;;;;2575681;23;19912;-82
2022/05/11 06:08:20;;;;;;;;;;;;;;;;;;;;;
2022/05/11 06:09:39;;;;;;;;;;;;;;;;;;2523473;23;19905;-86
2022/05/11 06:10:51;;;;;;;;;;;;;;;;;;2519370;23;19908;-86
2022/05/11 06:12:14;;;;;;;;;;;;;;;;;;2563605;23;19908;-85
2022/05/11 06:17:03;;;;;;;;;;;;;;;;;;2523495;23;19905;-88
2022/05/11 06:22:50;;;;;;;;;;;;;;;;;;2479138;23;20064;-90
2022/05/11 06:23:56;;;;;;;;;;;;;;;;;;2484760;23;19993;-84
2022/05/11 06:27:08;;;;;;;;;;;;;;;;;;2553093;23;19915;-85
2022/05/11 06:28:12;;;;;;;;;;;;;;;;;;2581688;23;19903;-83
2022/05/11 06:29:43;;;;;;;;;;;;;;;;;;;;;
2022/05/11 06:31:22;;;;;;;;;;;;;;;;;;2573219;23;19904;-86
2022/05/11 06:32:39;;;;;;;;;;;;;;;;;;2574714;23;19904;-88
2022/05/11 06:33:51;;;;;;;;;;;;;;;;;;;;;
2022/05/11 06:35:00;;;;;;;;;;;;;;;;;;2587370;23;20002;-88
2022/05/11 06:36:30;;;;;;;;;;;;;;;;;;2570177;23;19904;-87
2022/05/11 06:39:19;;;;;;;;;;;;;;;;;;2565498;23;19995;-89
2022/05/11 06:40:33;;;;;;;;;;;;;;;;;;2570224;23;20369;-84
2022/05/11 06:43:17;;;;;;;;;;;;;;;;;;2577251;23;19915;-87
2022/05/11 06:44:37;;;;;;;;;;;;;;;;;;2586352;23;19904;-85
2022/05/11 06:46:03;;;;;;;;;;;;;;;;;;2586774;23;19904;-87
2022/05/11 06:47:06;;;;;;;;;;;;;;;;;;2569413;23;20272;-85
2022/05/11 06:48:20;;;;;;;;;;;;;;;;;;2583037;23;19985;-88
2022/05/11 06:51:04;;;;;;;;;;;;;;;;;;2571234;23;19996;-88
2022/05/11 06:52:40;;;;;;;;;;;;;;;;;;;;;
2022/05/11 07:00:01;;;;;;;;;;;;;;;;;;2555641;23;19904;-85
2022/05/11 07:01:13;;;;;;;;;;;;;;;;;;2559546;23;19904;-87
2022/05/11 07:03:34;;;;;;;;;;;;;;;;;;2573169;23;19904;-81
2022/05/11 07:05:07;;;;;;;;;;;;;;;;;;;;;
2022/05/11 07:06:32;;;;;;;;;;;;;;;;;;2586208;23;19903;-94
2022/05/11 07:07:56;;;;;;;;;;;;;;;;;;2586458;23;19903;-86
2022/05/11 07:10:37;;;;;;;;;;;;;;;;;;2566846;23;19907;-89
2022/05/11 07:13:20;;;;;;;;;;;;;;;;;;;;;
2022/05/11 07:14:49;;;;;;;;;;;;;;;;;;2587630;23;19914;-89
2022/05/11 07:15:58;;;;;;;;;;;;;;;;;;2521102;23;19934;-89
2022/05/11 07:17:38;;;;;;;;;;;;;;;;;;;;;
2022/05/11 07:19:06;;;;;;;;;;;;;;;;;;;;;
2022/05/11 07:21:45;;;;;;;;;;;;;;;;;;2544555;23;19991;-89
2022/05/11 07:24:19;;;;;;;;;;;;;;;;;;;;;
2022/05/11 07:25:43;;;;;;;;;;;;;;;;;;2588119;23;19965;-85
2022/05/11 07:26:50;;;;;;;;;;;;;;;;;;2581502;23;19935;-91
2022/05/11 07:27:57;;;;;;;;;;;;;;;;;;2588796;23;19904;-82
2022/05/11 07:28:57;;;;;;;;;;;;;;;;;;2588487;23;19982;-82
2022/05/11 07:30:08;;;;;;;;;;;;;;;;;;2583938;23;19950;-83
2022/05/11 07:31:25;;;;;;;;;;;;;;;;;;2572754;23;19907;-82
2022/05/11 07:32:40;;;;;;;;;;;;;;;;;;;;;
2022/05/11 07:33:47;;;;;;;;;;;;;;;;;;2587825;23;19938;-91
2022/05/11 07:35:04;;;;;;;;;;;;;;;;;;;;;
2022/05/11 07:36:10;;;;;;;;;;;;;;;;;;2587510;23;19930;-89
2022/05/11 07:37:16;;;;;;;;;;;;;;;;;;2570144;23;20299;-84
2022/05/11 07:38:48;;;;;;;;;;;;;;;;;;;;;
2022/05/11 07:40:11;;;;;;;;;;;;;;;;;;2587965;23;19903;-83
2022/05/11 07:41:17;;;;;;;;;;;;;;;;;;2587619;22;19903;-82
2022/05/11 07:42:27;;;;;;;;;;;;;;;;;;2588004;23;20012;-86
2022/05/11 07:43:30;;;;;;;;;;;;;;;;;;2570723;23;19974;-84
2022/05/11 07:46:11;;;;;;;;;;;;;;;;;;;;;
2022/05/11 07:47:34;;;;;;;;;;;;;;;;;;;;;
2022/05/11 07:48:41;;;;;;;;;;;;;;;;;;2587504;23;20238;-85
2022/05/11 07:51:36;;;;;;;;;;;;;;;;;;;;;
2022/05/11 07:52:55;;;;;;;;;;;;;;;;;;;;;
2022/05/11 07:54:17;;;;;;;;;;;;;;;;;;2587640;23;19972;-89
2022/05/11 07:55:25;;;;;;;;;;;;;;;;;;2570434;23;19915;-85
2022/05/11 08:02:40;;;;;;;;;;;;;;;;;;2557236;23;19909;-87
2022/05/11 08:03:40;;;;;;;;;;;;;;;;;;2557872;23;19908;-87
2022/05/11 08:06:38;;;;;;;;;;;;;;;;;;;;;
2022/05/11 08:08:05;;;;;;;;;;;;;;;;;;2589612;23;19911;-85
2022/05/11 08:09:15;;;;;;;;;;;;;;;;;;;;;
2022/05/11 08:12:16;;;;;;;;;;;;;;;;;;2484246;23;19993;-87
2022/05/11 08:13:34;;;;;;;;;;;;;;;;;;2525088;23;19940;-86
2022/05/11 08:16:26;;;;;;;;;;;;;;;;;;2583360;23;19915;-89
2022/05/11 08:17:34;;;;;;;;;;;;;;;;;;2587876;23;19903;-85
2022/05/11 08:19:07;;;;;;;;;;;;;;;;;;;;;
2022/05/11 08:22:12;;;;;;;;;;;;;;;;;;2574956;23;19907;-91
2022/05/11 08:23:54;;;;;;;;;;;;;;;;;;2587439;23;19923;-90
2022/05/11 08:26:35;;;;;;;;;;;;;;;;;;2569567;23;20001;-86
2022/05/11 08:27:55;;;;;;;;;;;;;;;;;;2585124;23;19973;-88
2022/05/11 08:33:42;;;;;;;;;;;;;;;;;;2585903;23;19903;-85
2022/05/11 08:35:04;;;;;;;;;;;;;;;;;;2583583;23;20378;-87
2022/05/11 08:36:16;;;;;;;;;;;;;;;;;;2582785;23;19907;-88
2022/05/11 08:39:21;;;;;;;;;;;;;;;;;;2566524;23;20341;-88
2022/05/11 08:40:49;;;;;;;;;;;;;;;;;;2582362;23;19915;-83
2022/05/11 08:41:58;;;;;;;;;;;;;;;;;;2520223;23;19979;-87
2022/05/11 08:43:51;;;;;;;;;;;;;;;;;;2586860;23;19903;-88
2022/05/11 08:45:05;;;;;;;;;;;;;;;;;;;;;
2022/05/11 08:46:31;;;;;;;;;;;;;;;;;;2574857;23;19908;-89
2022/05/11 08:48:40;;;;;;;;;;;;;;;;;;2537003;23;19917;-89
2022/05/11 08:51:40;;;;;;;;;;;;;;;;;;2583097;22;19938;-85
2022/05/11 08:56:31;;;;;;;;;;;;;;;;;;2556898;23;19924;-91
2022/05/11 08:57:53;;;;;;;;;;;;;;;;;;2587572;23;19914;-83
2022/05/11 08:59:35;;;;;;;;;;;;;;;;;;2583541;23;19907;-88
2022/05/11 09:01:04;;;;;;;;;;;;;;;;;;;;;
2022/05/11 09:04:02;;;;;;;;;;;;;;;;;;2577478;23;19899;-87
2022/05/11 09:05:31;;;;;;;;;;;;;;;;;;2587107;23;19903;-90
2022/05/11 09:06:50;;;;;;;;;;;;;;;;;;;;;
2022/05/11 09:08:06;;;;;;;;;;;;;;;;;;2586912;23;19903;-90
2022/05/11 09:09:09;;;;;;;;;;;;;;;;;;2587232;23;19974;-87
2022/05/11 09:10:19;;;;;;;;;;;;;;;;;;2587435;23;20303;-88
2022/05/11 09:11:30;;;;;;;;;;;;;;;;;;2570007;23;19904;-88
2022/05/11 09:12:33;;;;;;;;;;;;;;;;;;2576629;23;19987;-86
2022/05/11 09:13:56;;;;;;;;;;;;;;;;;;2584415;23;19908;-89
2022/05/11 09:15:37;;;;;;;;;;;;;;;;;;;;;
2022/05/11 09:19:57;;;;;;;;;;;;;;;;;;2583236;23;19903;-88
2022/05/11 09:24:19;;;;;;;;;;;;;;;;;;2583197;23;19907;-88
2022/05/11 09:25:50;;;;;;;;;;;;;;;;;;;;;
2022/05/11 09:28:55;;;;;;;;;;;;;;;;;;2519663;23;20356;-90
2022/05/11 09:33:59;;;;;;;;;;;;;;;;;;;;;
2022/05/11 09:35:42;;;;;;;;;;;;;;;;;;;;;
2022/05/11 09:37:11;;;;;;;;;;;;;;;;;;2530980;23;20289;-88
2022/05/11 09:38:25;;;;;;;;;;;;;;;;;;2536694;23;19967;-88
2022/05/11 09:39:35;;;;;;;;;;;;;;;;;;2573470;23;20314;-90
2022/05/11 09:43:07;;;;;;;;;;;;;;;;;;2571339;23;20222;-80
2022/05/11 09:46:17;;;;;;;;;;;;;;;;;;2574726;23;19965;-89
2022/05/11 09:47:29;;;;;;;;;;;;;;;;;;2576921;23;19908;-87
2022/05/11 09:50:07;;;;;;;;;;;;;;;;;;;;;
2022/05/11 09:51:50;;;;;;;;;;;;;;;;;;;;;
2022/05/11 09:54:57;;;;;;;;;;;;;;;;;;2519085;23;19908;-90
2022/05/11 09:56:20;;;;;;;;;;;;;;;;;;2523759;23;19905;-87
2022/05/11 09:57:29;;;;;;;;;;;;;;;;;;2565404;23;19923;-90
2022/05/11 10:00:12;;;;;;;;;;;;;;;;;;2574756;23;19903;-90
2022/05/11 10:01:36;;;;;;;;;;;;;;;;;;2568938;23;20014;-88
2022/05/11 10:02:45;;;;;;;;;;;;;;;;;;2579613;23;19922;-91
2022/05/11 10:04:38;;;;;;;;;;;;;;;;;;2587770;23;19911;-92
2022/05/11 10:05:47;;;;;;;;;;;;;;;;;;2543767;23;19905;-91
2022/05/11 10:08:58;;;;;;;;;;;;;;;;;;;;;
2022/05/11 10:11:50;;;;;;;;;;;;;;;;;;2572519;23;20391;-89
2022/05/11 10:13:06;;;;;;;;;;;;;;;;;;2587711;23;19904;-85
2022/05/11 10:24:50;;;;;;;;;;;;;;;;;;2571445;23;19903;-89
2022/05/11 10:26:13;;;;;;;;;;;;;;;;;;2587654;23;19938;-88
2022/05/11 10:27:48;;;;;;;;;;;;;;;;;;2557719;23;19987;-89
2022/05/11 10:29:26;;;;;;;;;;;;;;;;;;2538208;23;19916;-88
2022/05/11 10:31:01;;;;;;;;;;;;;;;;;;2549811;23;19907;-87
2022/05/11 10:32:22;;;;;;;;;;;;;;;;;;2527985;23;20324;-90
2022/05/11 10:33:31;;;;;;;;;;;;;;;;;;2587770;23;19903;-88